createdAt,value
2023-01-02T00:00:15.802Z,9.27
2023-01-02T00:02:48.554Z,9.90
2023-01-02T00:05:17.100Z,7.07
2023-01-02T00:07:45.410Z,8.70
2023-01-02T00:10:14.109Z,8.70
2023-01-02T00:12:43.736Z,14.43
2023-01-02T00:15:14.033Z,12.10
2023-01-02T00:17:42.573Z,4.63
2023-01-02T00:20:11.624Z,5.27
2023-01-02T00:22:40.481Z,9.00
2023-01-02T00:25:28.370Z,9.10
2023-01-02T00:28:00.160Z,9.73
2023-01-02T00:30:35.732Z,7.30
2023-01-02T00:33:06.495Z,6.03
2023-01-02T00:35:35.078Z,7.73
2023-01-02T00:38:03.720Z,9.67
2023-01-02T00:40:33.330Z,9.27
2023-01-02T00:43:02.938Z,9.43
2023-01-02T00:45:32.775Z,5.87
2023-01-02T00:48:13.843Z,5.53
2023-01-02T00:50:42.604Z,5.97
2023-01-02T00:53:10.928Z,3.97
2023-01-02T00:56:03.340Z,5.57
2023-01-02T00:58:32.453Z,6.47
2023-01-02T01:01:04.963Z,8.33
2023-01-02T01:03:33.532Z,6.30
2023-01-02T01:06:08.329Z,11.07
2023-01-02T01:08:37.394Z,6.33
2023-01-02T01:11:09.429Z,8.40
2023-01-02T01:13:56.545Z,9.97
2023-01-02T01:16:27.417Z,8.30
2023-01-02T01:18:57.576Z,9.57
2023-01-02T01:21:26.036Z,11.20
2023-01-02T01:23:55.901Z,11.07
2023-01-02T01:26:30.021Z,10.10
2023-01-02T01:28:58.626Z,7.03
2023-01-02T01:31:28.761Z,6.43
2023-01-02T01:33:57.434Z,9.77
2023-01-02T01:36:29.968Z,4.37
2023-01-02T01:39:01.573Z,7.33
2023-01-02T01:41:30.466Z,5.80
2023-01-02T01:44:00.698Z,3.53
2023-01-02T01:46:35.289Z,2.87
2023-01-02T01:49:08.317Z,7.17
2023-01-02T01:51:43.143Z,4.77
2023-01-02T01:54:16.759Z,1.93
2023-01-02T01:56:48.979Z,3.77
2023-01-02T01:59:18.109Z,4.00
2023-01-02T02:01:50.412Z,5.03
2023-01-02T02:04:21.837Z,4.87
2023-01-02T02:06:54.665Z,4.53
2023-01-02T02:09:28.814Z,3.10
2023-01-02T02:11:57.479Z,1.67
2023-01-02T02:14:25.654Z,3.17
2023-01-02T02:17:02.143Z,6.83
2023-01-02T02:20:08.611Z,4.17
2023-01-02T02:23:10.816Z,3.30
2023-01-02T02:26:20.227Z,3.63
2023-01-02T02:29:15.145Z,3.20
2023-01-02T02:31:58.642Z,3.00
2023-01-02T02:34:37.007Z,4.50
2023-01-02T02:37:15.590Z,3.27
2023-01-02T02:39:55.933Z,3.83
2023-01-02T02:42:33.130Z,3.30
2023-01-02T02:45:11.459Z,1.30
2023-01-02T02:47:48.489Z,2.40
2023-01-02T02:50:24.650Z,1.10
2023-01-02T02:52:58.474Z,1.00
2023-01-02T02:55:31.711Z,0.53
2023-01-02T02:58:00.868Z,4.07
2023-01-02T03:00:29.191Z,1.83
2023-01-02T03:02:59.658Z,2.53
2023-01-02T03:05:35.035Z,3.87
2023-01-02T03:08:12.159Z,4.13
2023-01-02T03:10:48.239Z,4.73
2023-01-02T03:13:27.089Z,3.60
2023-01-02T03:16:06.446Z,4.53
2023-01-02T03:18:39.776Z,4.77
2023-01-02T03:21:11.799Z,1.80
2023-01-02T03:23:44.644Z,2.33
2023-01-02T03:26:14.647Z,4.70
2023-01-02T03:28:47.009Z,2.07
2023-01-02T03:31:20.380Z,2.23
2023-01-02T03:33:54.490Z,3.80
2023-01-02T03:36:25.697Z,3.23
2023-01-02T03:39:00.633Z,6.23
2023-01-02T03:41:34.551Z,5.37
2023-01-02T03:44:04.376Z,2.77
2023-01-02T03:46:35.875Z,3.90
2023-01-02T03:49:08.476Z,6.10
2023-01-02T03:51:37.235Z,2.50
2023-01-02T03:54:07.196Z,4.13
2023-01-02T03:56:49.671Z,0.90
2023-01-02T03:59:27.076Z,5.20
2023-01-02T04:02:01.360Z,4.93
2023-01-02T04:04:40.688Z,3.50
2023-01-02T04:07:15.630Z,3.50
2023-01-02T04:09:46.165Z,2.30
2023-01-02T04:12:17.797Z,1.20
2023-01-02T04:14:50.010Z,2.80
2023-01-02T04:17:21.720Z,4.13
2023-01-02T04:19:56.644Z,1.90
2023-01-02T04:22:29.277Z,3.73
2023-01-02T04:25:02.801Z,2.90
2023-01-02T04:27:36.371Z,2.53
2023-01-02T04:30:05.291Z,2.17
2023-01-02T04:32:42.841Z,4.20
2023-01-02T04:35:17.054Z,3.00
2023-01-02T04:37:47.100Z,4.07
2023-01-02T04:40:21.046Z,2.20
2023-01-02T04:42:49.232Z,4.40
2023-01-02T04:45:17.912Z,3.07
2023-01-02T04:47:46.514Z,2.57
2023-01-02T04:50:16.320Z,4.43
2023-01-02T04:52:44.887Z,2.07
2023-01-02T04:55:13.037Z,3.40
2023-01-02T04:57:41.077Z,2.40
2023-01-02T05:00:10.427Z,1.13
2023-01-02T05:02:39.445Z,4.10
2023-01-02T05:05:09.249Z,2.17
2023-01-02T05:07:39.721Z,1.63
2023-01-02T05:10:09.338Z,2.67
2023-01-02T05:12:39.154Z,4.13
2023-01-02T05:15:09.570Z,1.57
2023-01-02T05:17:41.867Z,1.37
2023-01-02T05:20:12.211Z,3.20
2023-01-02T05:22:59.591Z,3.57
2023-01-02T05:25:28.828Z,2.50
2023-01-02T05:27:57.301Z,3.97
2023-01-02T05:30:28.747Z,5.40
2023-01-02T05:32:57.335Z,2.90
2023-01-02T05:35:31.853Z,2.30
2023-01-02T05:38:02.493Z,2.67
2023-01-02T05:40:31.134Z,4.40
2023-01-02T05:43:00.092Z,2.10
2023-01-02T05:45:28.143Z,1.50
2023-01-02T05:47:57.008Z,4.63
2023-01-02T05:50:25.088Z,2.50
2023-01-02T05:52:53.279Z,6.27
2023-01-02T05:55:23.043Z,5.07
2023-01-02T05:57:56.497Z,4.23
2023-01-02T06:00:24.963Z,4.67
2023-01-02T06:02:53.253Z,6.53
2023-01-02T06:05:21.502Z,3.60
2023-01-02T06:07:50.048Z,1.97
2023-01-02T06:10:18.456Z,3.17
2023-01-02T06:12:48.062Z,3.00
2023-01-02T06:15:16.255Z,2.27
2023-01-02T06:17:44.532Z,2.60
2023-01-02T06:20:13.062Z,7.63
2023-01-02T06:22:41.340Z,4.50
2023-01-02T06:25:10.182Z,5.07
2023-01-02T06:27:38.258Z,4.00
2023-01-02T06:30:09.424Z,3.40
2023-01-02T06:32:37.411Z,8.67
2023-01-02T06:35:06.107Z,9.10
2023-01-02T06:37:34.216Z,10.53
2023-01-02T06:40:02.404Z,15.43
2023-01-02T06:42:32.703Z,4.83
2023-01-02T06:45:10.828Z,5.43
2023-01-02T06:47:39.561Z,5.03
2023-01-02T06:50:09.112Z,5.30
2023-01-02T06:52:37.679Z,6.83
2023-01-02T06:55:06.464Z,10.53
2023-01-02T06:57:34.519Z,4.70
2023-01-02T07:00:02.858Z,8.87
2023-01-02T07:02:32.558Z,5.83
2023-01-02T07:05:01.769Z,15.90
2023-01-02T07:07:30.315Z,7.50
2023-01-02T07:10:01.021Z,4.20
2023-01-02T07:12:30.569Z,5.13
2023-01-02T07:14:58.804Z,7.53
2023-01-02T07:17:27.593Z,7.87
2023-01-02T07:20:01.960Z,5.50
2023-01-02T07:22:31.029Z,6.83
2023-01-02T07:25:02.157Z,7.00
2023-01-02T07:27:33.751Z,3.30
2023-01-02T07:30:03.438Z,4.50
2023-01-02T07:32:32.096Z,3.77
2023-01-02T07:35:01.809Z,4.07
2023-01-02T07:37:30.039Z,5.70
2023-01-02T07:39:58.361Z,9.10
2023-01-02T07:42:26.602Z,11.13
2023-01-02T07:44:55.158Z,2.27
2023-01-02T07:47:23.387Z,3.27
2023-01-02T07:49:51.416Z,6.67
2023-01-02T07:52:21.061Z,7.10
2023-01-02T07:54:49.798Z,4.40
2023-01-02T07:57:18.117Z,5.73
2023-01-02T07:59:47.217Z,6.13
2023-01-02T08:02:15.553Z,3.63
2023-01-02T08:04:43.945Z,8.20
2023-01-02T08:07:12.178Z,5.13
2023-01-02T08:09:41.763Z,5.73
2023-01-02T08:12:10.048Z,5.07
2023-01-02T08:14:39.765Z,9.17
2023-01-02T08:17:08.258Z,5.70
2023-01-02T08:19:36.594Z,6.50
2023-01-02T08:22:06.854Z,6.50
2023-01-02T08:24:35.256Z,6.10
2023-01-02T08:27:05.158Z,4.00
2023-01-02T08:29:33.278Z,4.87
2023-01-02T08:32:05.324Z,5.80
2023-01-02T08:34:35.177Z,4.13
2023-01-02T08:37:03.227Z,3.70
2023-01-02T08:39:31.358Z,5.87
2023-01-02T08:41:59.562Z,6.37
2023-01-02T08:44:29.175Z,3.23
2023-01-02T08:46:57.369Z,7.50
2023-01-02T08:49:25.475Z,5.93
2023-01-02T08:51:53.718Z,2.80
2023-01-02T08:54:22.048Z,2.50
2023-01-02T08:56:50.332Z,2.27
2023-01-02T08:59:18.337Z,8.13
2023-01-02T09:01:50.887Z,6.30
2023-01-02T09:04:20.070Z,1.43
2023-01-02T09:06:48.197Z,3.23
2023-01-02T09:09:18.439Z,3.90
2023-01-02T09:11:50.776Z,3.13
2023-01-02T09:14:20.117Z,2.23
2023-01-02T09:16:48.763Z,2.10
2023-01-02T09:19:18.677Z,4.10
2023-01-02T09:21:49.466Z,2.50
2023-01-02T09:24:17.745Z,2.43
2023-01-02T09:26:46.877Z,4.10
2023-01-02T09:29:16.578Z,2.57
2023-01-02T09:31:45.092Z,2.93
2023-01-02T09:34:13.541Z,4.63
2023-01-02T09:36:43.284Z,3.33
2023-01-02T09:39:12.853Z,9.77
2023-01-02T09:41:46.502Z,3.50
2023-01-02T09:44:18.241Z,4.00
2023-01-02T09:46:50.932Z,5.30
2023-01-02T09:49:23.250Z,5.27
2023-01-02T09:51:52.862Z,3.77
2023-01-02T09:54:26.547Z,11.63
2023-01-02T09:57:12.867Z,58.63
2023-01-02T09:59:48.174Z,11.53
2023-01-02T10:02:29.004Z,6.37
2023-01-02T10:05:14.782Z,5.47
2023-01-02T10:07:52.193Z,4.57
2023-01-02T10:10:30.502Z,5.60
2023-01-02T10:13:05.995Z,4.07
2023-01-02T10:15:34.959Z,2.97
2023-01-02T10:18:15.204Z,6.17
2023-01-02T10:20:50.356Z,6.57
2023-01-02T10:23:25.251Z,4.70
2023-01-02T10:25:59.131Z,2.50
2023-01-02T10:28:35.535Z,3.90
2023-01-02T10:31:08.916Z,4.57
2023-01-02T10:33:45.568Z,4.53
2023-01-02T10:36:24.392Z,2.40
2023-01-02T10:38:55.341Z,3.10
2023-01-02T10:41:23.745Z,2.20
2023-01-02T10:43:57.425Z,3.97
2023-01-02T10:46:29.707Z,3.43
2023-01-02T10:48:58.939Z,2.63
2023-01-02T10:51:28.503Z,2.40
2023-01-02T10:54:07.072Z,5.50
2023-01-02T10:56:38.352Z,3.73
2023-01-02T10:59:23.251Z,3.77
2023-01-02T11:01:54.376Z,3.83
2023-01-02T11:04:25.638Z,4.33
2023-01-02T11:06:57.738Z,3.47
2023-01-02T11:09:29.711Z,1.97
2023-01-02T11:12:09.854Z,5.33
2023-01-02T11:14:39.118Z,2.63
2023-01-02T11:17:13.774Z,1.63
2023-01-02T11:19:44.172Z,2.43
2023-01-02T11:22:15.410Z,6.53
2023-01-02T11:25:00.355Z,2.97
2023-01-02T11:27:32.234Z,8.30
2023-01-02T11:30:01.381Z,3.63
2023-01-02T11:32:30.960Z,2.63
2023-01-02T11:35:02.467Z,2.47
2023-01-02T11:37:30.675Z,3.40
2023-01-02T11:40:02.629Z,5.17
2023-01-02T11:42:55.078Z,2.93
2023-01-02T11:45:23.594Z,4.37
2023-01-02T11:47:54.114Z,4.33
2023-01-02T11:50:25.753Z,3.53
2023-01-02T11:52:59.274Z,5.83
2023-01-02T11:55:39.127Z,2.77
2023-01-02T11:58:17.921Z,3.47
2023-01-02T12:00:50.415Z,4.97
2023-01-02T12:03:22.756Z,3.30
2023-01-02T12:06:14.420Z,3.10
2023-01-02T12:08:53.673Z,2.60
2023-01-02T12:11:42.050Z,3.97
2023-01-02T12:14:18.118Z,1.97
2023-01-02T12:16:57.354Z,2.20
2023-01-02T12:19:50.595Z,2.40
2023-01-02T12:22:42.441Z,3.70
2023-01-02T12:25:45.821Z,3.53
2023-01-02T12:28:32.068Z,2.57
2023-01-02T12:31:16.708Z,3.00
2023-01-02T12:33:53.793Z,2.63
2023-01-02T12:36:53.016Z,1.80
2023-01-02T12:39:50.630Z,6.67
2023-01-02T12:42:34.077Z,2.20
2023-01-02T12:45:03.617Z,7.13
2023-01-02T12:47:48.256Z,1.17
2023-01-02T12:50:37.483Z,1.30
2023-01-02T12:53:26.246Z,0.80
2023-01-02T12:56:06.880Z,0.87
2023-01-02T12:58:49.781Z,5.13
2023-01-02T13:01:24.475Z,1.27
2023-01-02T13:03:59.103Z,1.10
2023-01-02T13:06:44.907Z,1.00
2023-01-02T13:09:23.018Z,4.40
2023-01-02T13:12:01.510Z,1.93
2023-01-02T13:14:37.004Z,2.07
2023-01-02T13:17:32.491Z,1.30
2023-01-02T13:20:06.642Z,5.07
2023-01-02T13:22:42.142Z,3.10
2023-01-02T13:25:16.814Z,1.80
2023-01-02T13:27:47.687Z,3.63
2023-01-02T13:30:45.007Z,2.43
2023-01-02T13:33:24.738Z,1.83
2023-01-02T13:35:53.572Z,4.57
2023-01-02T13:38:27.697Z,4.70
2023-01-02T13:40:58.655Z,1.37
2023-01-02T13:43:31.945Z,2.40
2023-01-02T13:46:01.468Z,2.57
2023-01-02T13:48:48.311Z,2.13
2023-01-02T13:51:22.832Z,0.30
2023-01-02T13:53:52.843Z,2.03
2023-01-02T13:56:24.142Z,1.07
2023-01-02T13:59:00.104Z,0.83
2023-01-02T14:02:04.524Z,5.20
2023-01-02T14:04:42.327Z,2.67
2023-01-02T14:07:49.648Z,2.43
2023-01-02T14:10:36.588Z,2.47
2023-01-02T14:13:10.288Z,2.23
2023-01-02T14:16:14.136Z,2.93
2023-01-02T14:18:46.577Z,4.07
2023-01-02T14:21:21.094Z,0.80
2023-01-02T14:24:16.060Z,2.97
2023-01-02T14:26:43.158Z,3.40
2023-01-02T14:29:17.514Z,1.63
2023-01-02T14:31:48.100Z,4.43
2023-01-02T14:34:25.795Z,2.07
2023-01-02T14:36:58.807Z,5.63
2023-01-02T14:39:30.662Z,2.43
2023-01-02T14:42:31.779Z,1.40
2023-01-02T14:45:06.836Z,2.83
2023-01-02T14:47:39.178Z,1.20
2023-01-02T14:50:14.967Z,5.10
2023-01-02T14:52:48.562Z,1.53
2023-01-02T14:55:20.282Z,2.40
2023-01-02T14:57:50.407Z,2.50
2023-01-02T15:00:25.266Z,3.27
2023-01-02T15:02:59.617Z,2.30
2023-01-02T15:05:36.831Z,2.17
2023-01-02T15:08:12.267Z,6.33
2023-01-02T15:10:56.644Z,6.77
2023-01-02T15:13:27.495Z,11.53
2023-01-02T15:16:01.254Z,9.00
2023-01-02T15:18:33.370Z,5.43
2023-01-02T15:21:08.843Z,7.27
2023-01-02T15:23:45.463Z,7.83
2023-01-02T15:26:34.331Z,6.57
2023-01-02T15:29:05.241Z,7.60
2023-01-02T15:31:34.225Z,4.03
2023-01-02T15:34:03.176Z,9.17
2023-01-02T15:36:38.992Z,4.50
2023-01-02T15:39:17.178Z,7.20
2023-01-02T15:41:50.437Z,6.90
2023-01-02T15:44:41.521Z,8.67
2023-01-02T15:47:11.987Z,8.03
2023-01-02T15:49:44.349Z,5.33
2023-01-02T15:52:23.910Z,4.83
2023-01-02T15:54:55.785Z,4.50
2023-01-02T15:57:32.159Z,9.40
2023-01-02T16:00:03.296Z,8.37
2023-01-02T16:02:43.548Z,7.07
2023-01-02T16:05:15.647Z,5.50
2023-01-02T16:07:52.736Z,1.57
2023-01-02T16:10:26.131Z,4.00
2023-01-02T16:12:57.690Z,3.10
2023-01-02T16:15:30.456Z,3.27
2023-01-02T16:17:59.453Z,3.40
2023-01-02T16:20:29.839Z,3.37
2023-01-02T16:23:01.717Z,2.03
2023-01-02T16:25:34.671Z,2.17
2023-01-02T16:28:35.964Z,1.47
2023-01-02T16:31:14.597Z,3.70
2023-01-02T16:33:43.522Z,3.83
2023-01-02T16:36:22.814Z,3.07
2023-01-02T16:38:54.907Z,2.47
2023-01-02T16:42:22.994Z,4.00
2023-01-02T16:44:56.495Z,3.67
2023-01-02T16:47:26.182Z,3.23
2023-01-02T16:49:54.695Z,3.80
2023-01-02T16:52:22.932Z,3.30
2023-01-02T16:54:54.246Z,4.77
2023-01-02T16:57:33.444Z,5.33
2023-01-02T17:02:49.461Z,7.13
2023-01-02T17:05:21.622Z,8.23
2023-01-02T17:07:49.943Z,6.50
2023-01-02T17:10:17.996Z,7.90
2023-01-02T17:12:46.093Z,6.03
2023-01-02T17:15:17.225Z,6.47
2023-01-02T17:17:45.387Z,11.63
2023-01-02T17:20:14.486Z,19.20
2023-01-02T17:22:43.452Z,21.33
2023-01-02T17:25:15.180Z,19.13
2023-01-02T17:27:44.147Z,16.40
2023-01-02T17:30:14.254Z,13.17
2023-01-02T17:32:45.104Z,12.87
2023-01-02T17:35:13.948Z,10.63
2023-01-02T17:37:44.631Z,15.77
2023-01-02T17:40:14.727Z,21.03
2023-01-02T17:42:42.915Z,20.30
2023-01-02T17:45:12.463Z,18.40
2023-01-02T17:50:30.918Z,12.50
2023-01-02T17:52:59.986Z,8.73
2023-01-02T17:55:28.242Z,17.50
2023-01-02T17:57:56.584Z,26.20
2023-01-02T18:00:24.851Z,29.47
2023-01-02T18:02:53.760Z,22.17
2023-01-02T18:05:23.424Z,19.10
2023-01-02T18:07:53.084Z,9.43
2023-01-02T18:10:22.304Z,7.10
2023-01-02T18:12:52.922Z,9.17
2023-01-02T18:15:23.507Z,22.47
2023-01-02T18:17:51.860Z,25.17
2023-01-02T18:20:22.986Z,14.27
2023-01-02T18:22:52.716Z,9.97
2023-01-02T18:25:24.579Z,16.27
2023-01-02T18:27:54.362Z,25.77
2023-01-02T18:30:25.098Z,25.77
2023-01-02T18:33:04.150Z,18.73
2023-01-02T18:35:56.896Z,14.83
2023-01-02T18:38:33.240Z,14.17
2023-01-02T18:41:01.722Z,9.17
2023-01-02T18:43:35.983Z,57.93
2023-01-02T18:46:16.497Z,47.30
2023-01-02T18:48:45.004Z,6.83
2023-01-02T18:51:18.949Z,9.43
2023-01-02T18:53:59.255Z,7.40
2023-01-02T18:56:32.394Z,5.30
2023-01-02T18:59:04.610Z,6.60
2023-01-02T19:01:37.070Z,14.43
2023-01-02T19:04:29.059Z,9.47
2023-01-02T19:07:00.803Z,15.63
2023-01-02T19:09:33.129Z,8.33
2023-01-02T19:12:36.182Z,5.37
2023-01-02T19:15:37.111Z,11.40
2023-01-02T19:18:26.796Z,9.67
2023-01-02T19:21:00.585Z,7.43
2023-01-02T19:23:31.532Z,8.47
2023-01-02T19:26:19.799Z,6.03
2023-01-02T19:28:56.849Z,7.33
2023-01-02T19:31:25.688Z,6.73
2023-01-02T19:34:00.644Z,5.63
2023-01-02T19:36:40.302Z,5.13
2023-01-02T19:39:27.204Z,5.87
2023-01-02T19:42:29.164Z,9.77
2023-01-02T19:44:58.984Z,5.40
2023-01-02T19:47:29.506Z,5.70
2023-01-02T19:49:58.607Z,5.93
2023-01-02T19:52:28.523Z,6.83
2023-01-02T19:54:57.307Z,6.73
2023-01-02T19:57:27.524Z,7.80
2023-01-02T19:59:57.349Z,5.90
2023-01-02T20:02:26.594Z,6.43
2023-01-02T20:04:56.554Z,9.27
2023-01-02T20:07:25.984Z,7.83
2023-01-02T20:09:54.546Z,6.50
2023-01-02T20:12:35.328Z,4.03
2023-01-02T20:15:10.154Z,4.43
2023-01-02T20:17:39.964Z,8.60
2023-01-02T20:20:11.120Z,7.93
2023-01-02T20:22:39.327Z,7.37
2023-01-02T20:25:08.750Z,8.13
2023-01-02T20:27:39.608Z,8.10
2023-01-02T20:30:10.957Z,5.13
2023-01-02T20:32:39.287Z,4.53
2023-01-02T20:35:09.350Z,6.73
2023-01-02T20:37:37.884Z,8.57
2023-01-02T20:40:07.744Z,8.50
2023-01-02T20:42:37.227Z,7.27
2023-01-02T20:45:06.793Z,11.10
2023-01-02T20:47:38.217Z,9.97
2023-01-02T20:50:17.129Z,9.67
2023-01-02T20:52:47.729Z,6.67
2023-01-02T20:55:18.137Z,5.33
2023-01-02T20:57:48.528Z,7.47
2023-01-02T21:00:20.596Z,6.60
2023-01-02T21:02:50.808Z,4.17
2023-01-02T21:05:19.762Z,4.63
2023-01-02T21:07:47.857Z,5.13
2023-01-02T21:10:17.207Z,10.33
2023-01-02T21:13:03.507Z,7.30
2023-01-02T21:15:46.674Z,4.73
2023-01-02T21:18:25.511Z,9.30
2023-01-02T21:20:57.781Z,9.43
2023-01-02T21:23:28.065Z,12.10
2023-01-02T21:25:57.499Z,8.13
2023-01-02T21:28:27.024Z,8.57
2023-01-02T21:30:55.627Z,13.73
2023-01-02T21:33:27.496Z,10.53
2023-01-02T21:35:57.827Z,10.90
2023-01-02T21:38:27.696Z,7.67
2023-01-02T21:41:18.117Z,9.57
2023-01-02T21:43:50.501Z,9.13
2023-01-02T21:46:19.925Z,9.77
2023-01-02T21:48:50.347Z,13.37
2023-01-02T21:51:19.644Z,14.47
2023-01-02T21:53:48.311Z,9.30
2023-01-02T21:56:18.413Z,7.37
2023-01-02T21:58:47.413Z,7.07
2023-01-02T22:01:16.141Z,5.23
2023-01-02T22:03:45.611Z,5.50
2023-01-02T22:06:15.623Z,6.27
2023-01-02T22:08:44.311Z,5.90
2023-01-02T22:11:29.775Z,8.53
2023-01-02T22:13:57.853Z,10.43
2023-01-02T22:16:26.958Z,4.83
2023-01-02T22:18:55.156Z,6.93
2023-01-02T22:21:25.248Z,8.07
2023-01-02T22:23:53.621Z,7.57
2023-01-02T22:26:22.351Z,7.70
2023-01-02T22:28:50.802Z,8.33
2023-01-02T22:31:19.606Z,3.23
2023-01-02T22:36:32.588Z,6.10
2023-01-02T22:42:57.541Z,9.53
2023-01-02T22:45:09.866Z,3.40
2023-01-02T22:47:39.720Z,5.17
2023-01-02T22:50:12.419Z,8.43
2023-01-02T22:52:42.328Z,3.93
2023-01-02T22:55:17.610Z,5.73
2023-01-02T22:57:52.542Z,5.90
2023-01-02T23:00:23.864Z,4.20
2023-01-02T23:02:52.745Z,7.90
2023-01-02T23:05:24.030Z,10.60
2023-01-02T23:07:54.257Z,7.67
2023-01-02T23:10:22.600Z,8.70
2023-01-02T23:12:54.146Z,7.03
2023-01-02T23:15:24.594Z,9.80
2023-01-02T23:18:08.560Z,4.93
2023-01-02T23:20:38.093Z,6.10
2023-01-02T23:23:10.088Z,6.90
2023-01-02T23:25:50.245Z,8.40
2023-01-02T23:28:39.344Z,4.83
2023-01-02T23:31:06.877Z,6.13
2023-01-02T23:33:35.035Z,4.27
2023-01-02T23:36:03.415Z,3.70
2023-01-02T23:38:34.443Z,5.87
2023-01-02T23:41:03.202Z,8.20
2023-01-02T23:43:31.420Z,3.80
2023-01-02T23:46:00.209Z,5.93
2023-01-02T23:48:28.489Z,4.07
2023-01-02T23:51:00.029Z,5.20
2023-01-02T23:53:28.947Z,5.57
2023-01-02T23:55:59.472Z,4.23
2023-01-02T23:58:27.649Z,4.87
